createdAt,value
2018-11-25T00:01:09.825Z,3.76
2018-11-25T00:02:43.801Z,3.73
2018-11-25T00:04:17.753Z,3.72
2018-11-25T00:05:51.697Z,3.73
2018-11-25T00:07:34.330Z,3.72
2018-11-25T00:09:01.225Z,3.71
2018-11-25T00:10:36.075Z,3.69
2018-11-25T00:12:11.125Z,3.70
2018-11-25T00:13:44.733Z,3.70
2018-11-25T00:15:18.534Z,3.70
2018-11-25T00:16:53.571Z,3.68
2018-11-25T00:18:27.617Z,3.69
2018-11-25T00:20:02.355Z,3.69
2018-11-25T00:21:35.984Z,3.68
2018-11-25T00:23:09.973Z,3.68
2018-11-25T00:24:44.872Z,3.65
2018-11-25T00:26:18.600Z,3.67
2018-11-25T00:27:53.118Z,3.64
2018-11-25T00:29:32.211Z,3.64
2018-11-25T00:31:09.729Z,3.64
2018-11-25T00:32:44.004Z,3.63
2018-11-25T00:34:18.979Z,3.66
2018-11-25T00:35:52.914Z,3.64
2018-11-25T00:37:27.082Z,3.63
2018-11-25T00:39:01.675Z,3.63
2018-11-25T00:40:35.730Z,3.63
2018-11-25T00:42:09.322Z,3.63
2018-11-25T00:43:44.510Z,3.63
2018-11-25T00:45:19.000Z,3.63
2018-11-25T00:46:53.312Z,3.63
2018-11-25T00:48:27.063Z,3.63
2018-11-25T00:50:00.881Z,3.63
2018-11-25T00:51:35.997Z,3.62
2018-11-25T00:53:09.953Z,3.63
2018-11-25T00:54:43.608Z,3.61
2018-11-25T00:56:17.225Z,3.62
2018-11-25T00:57:51.270Z,3.63
2018-11-25T00:59:25.759Z,3.62
2018-11-25T01:00:59.430Z,3.62
2018-11-25T01:02:33.407Z,3.62
2018-11-25T01:04:07.127Z,3.62
2018-11-25T01:05:41.169Z,3.60
2018-11-25T01:07:15.191Z,3.62
2018-11-25T01:08:49.575Z,3.62
2018-11-25T01:10:23.302Z,3.63
2018-11-25T01:11:57.785Z,3.62
2018-11-25T01:13:32.843Z,3.65
2018-11-25T01:15:08.123Z,3.63
2018-11-25T01:16:42.283Z,3.63
2018-11-25T01:18:16.398Z,3.62
2018-11-25T01:19:50.462Z,3.61
2018-11-25T01:21:24.088Z,3.62
2018-11-25T01:22:59.106Z,3.62
2018-11-25T01:24:33.169Z,3.60
2018-11-25T01:26:07.702Z,3.60
2018-11-25T01:27:42.249Z,3.62
2018-11-25T01:29:17.236Z,3.60
2018-11-25T01:30:51.538Z,3.60
2018-11-25T01:32:25.491Z,3.60
2018-11-25T01:33:59.431Z,3.59
2018-11-25T01:35:33.821Z,3.60
2018-11-25T01:37:09.320Z,3.60
2018-11-25T01:38:43.221Z,3.62
2018-11-25T01:40:17.263Z,3.60
2018-11-25T01:41:51.225Z,3.63
2018-11-25T01:43:25.630Z,3.63
2018-11-25T01:44:59.898Z,3.63
2018-11-25T01:46:34.293Z,3.62
2018-11-25T01:48:08.053Z,3.62
2018-11-25T01:49:41.924Z,3.62
2018-11-25T01:51:17.986Z,3.60
2018-11-25T01:52:52.609Z,3.60
2018-11-25T01:54:26.698Z,3.62
2018-11-25T01:56:01.432Z,3.60
2018-11-25T01:57:35.960Z,3.62
2018-11-25T01:59:11.088Z,3.63
2018-11-25T02:00:45.815Z,3.64
2018-11-25T02:02:20.070Z,3.60
2018-11-25T02:03:55.034Z,3.59
2018-11-25T02:05:29.899Z,3.57
2018-11-25T02:07:05.137Z,3.56
2018-11-25T02:08:39.740Z,3.57
2018-11-25T02:10:14.128Z,3.58
2018-11-25T02:11:50.590Z,3.55
2018-11-25T02:13:24.598Z,3.57
2018-11-25T02:14:58.632Z,3.58
2018-11-25T02:16:33.013Z,3.57
2018-11-25T02:18:07.539Z,3.56
2018-11-25T02:19:41.431Z,3.58
2018-11-25T02:21:15.410Z,3.57
2018-11-25T02:22:49.863Z,3.55
2018-11-25T02:24:24.667Z,3.53
2018-11-25T02:25:58.766Z,3.54
2018-11-25T02:27:32.948Z,3.53
2018-11-25T02:29:07.140Z,3.52
2018-11-25T02:30:41.673Z,3.52
2018-11-25T02:32:15.909Z,3.49
2018-11-25T02:33:52.125Z,3.46
2018-11-25T02:35:27.800Z,3.46
2018-11-25T02:37:01.599Z,3.42
2018-11-25T02:38:36.705Z,3.42
2018-11-25T02:40:11.508Z,3.42
2018-11-25T02:41:46.072Z,3.41
2018-11-25T02:43:21.084Z,3.44
2018-11-25T02:44:56.478Z,3.44
2018-11-25T02:46:30.548Z,3.41
2018-11-25T02:48:05.755Z,3.41
2018-11-25T02:49:43.067Z,3.39
2018-11-25T02:51:17.160Z,3.38
2018-11-25T02:52:51.705Z,3.37
2018-11-25T02:54:25.593Z,3.36
2018-11-25T02:56:00.598Z,3.37
2018-11-25T02:57:34.314Z,3.37
2018-11-25T02:59:12.394Z,3.35
2018-11-25T03:00:47.153Z,3.36
2018-11-25T03:02:21.712Z,3.34
2018-11-25T03:03:56.478Z,3.36
2018-11-25T03:05:32.198Z,3.33
2018-11-25T03:07:07.843Z,3.32
2018-11-25T03:08:42.674Z,3.34
2018-11-25T03:10:17.833Z,3.35
2018-11-25T03:11:52.780Z,3.33
2018-11-25T03:13:37.266Z,3.33
2018-11-25T03:15:13.243Z,3.31
2018-11-25T03:16:48.662Z,3.31
2018-11-25T03:18:23.022Z,3.30
2018-11-25T03:19:56.653Z,3.32
2018-11-25T03:21:30.966Z,3.32
2018-11-25T03:23:06.191Z,3.33
2018-11-25T03:24:40.621Z,3.33
2018-11-25T03:26:15.222Z,3.33
2018-11-25T03:27:48.839Z,3.33
2018-11-25T03:29:22.618Z,3.29
2018-11-25T03:30:57.771Z,3.28
2018-11-25T03:32:31.485Z,3.28
2018-11-25T03:34:06.128Z,3.28
2018-11-25T03:35:40.038Z,3.29
2018-11-25T03:37:14.326Z,3.29
2018-11-25T03:38:48.478Z,3.29
2018-11-25T03:40:23.549Z,3.29
2018-11-25T03:41:59.114Z,3.29
2018-11-25T03:43:32.927Z,3.29
2018-11-25T03:45:08.574Z,3.31
2018-11-25T03:46:42.529Z,3.30
2018-11-25T03:48:16.733Z,3.29
2018-11-25T03:49:51.968Z,3.27
2018-11-25T03:51:26.121Z,3.28
2018-11-25T03:53:00.353Z,3.24
2018-11-25T03:54:34.222Z,3.24
2018-11-25T03:56:07.803Z,3.26
2018-11-25T03:57:42.207Z,3.25
2018-11-25T03:59:18.871Z,3.26
2018-11-25T04:00:52.668Z,3.27
2018-11-25T04:02:30.654Z,3.27
2018-11-25T04:04:04.531Z,3.26
2018-11-25T04:05:38.474Z,3.28
2018-11-25T04:07:12.507Z,3.28
2018-11-25T04:08:46.546Z,3.30
2018-11-25T04:10:20.524Z,3.31
2018-11-25T04:11:54.498Z,3.32
2018-11-25T04:13:28.909Z,3.32
2018-11-25T04:15:04.641Z,3.33
2018-11-25T04:16:39.211Z,3.29
2018-11-25T04:18:13.483Z,3.28
2018-11-25T04:19:47.235Z,3.30
2018-11-25T04:21:22.911Z,3.31
2018-11-25T04:22:56.847Z,3.31
2018-11-25T04:24:30.831Z,3.29
2018-11-25T04:26:05.696Z,3.29
2018-11-25T04:27:39.519Z,3.31
2018-11-25T04:29:13.961Z,3.30
2018-11-25T04:30:47.776Z,3.29
2018-11-25T04:32:22.783Z,3.28
2018-11-25T04:33:56.604Z,3.29
2018-11-25T04:35:30.931Z,3.31
2018-11-25T04:37:06.351Z,3.31
2018-11-25T04:38:40.055Z,3.32
2018-11-25T04:40:15.573Z,3.32
2018-11-25T04:41:49.677Z,3.34
2018-11-25T04:43:24.747Z,3.33
2018-11-25T04:44:58.900Z,3.32
2018-11-25T04:46:32.944Z,3.34
2018-11-25T04:48:06.711Z,3.35
2018-11-25T04:49:41.350Z,3.37
2018-11-25T04:51:15.035Z,3.37
2018-11-25T04:52:50.160Z,3.35
2018-11-25T04:54:24.456Z,3.36
2018-11-25T04:55:58.746Z,3.35
2018-11-25T04:57:32.703Z,3.35
2018-11-25T04:59:07.037Z,3.35
2018-11-25T05:00:41.514Z,3.36
2018-11-25T05:02:15.445Z,3.40
2018-11-25T05:03:51.716Z,3.39
2018-11-25T05:05:25.743Z,3.40
2018-11-25T05:07:02.971Z,3.35
2018-11-25T05:08:36.977Z,3.37
2018-11-25T05:10:12.490Z,3.35
2018-11-25T05:11:48.298Z,3.35
2018-11-25T05:13:22.258Z,3.36
2018-11-25T05:14:56.863Z,3.34
2018-11-25T05:16:31.084Z,3.33
2018-11-25T05:18:05.083Z,3.34
2018-11-25T05:19:39.466Z,3.32
2018-11-25T05:21:13.649Z,3.35
2018-11-25T05:22:48.091Z,3.32
2018-11-25T05:24:22.123Z,3.33
2018-11-25T05:25:58.716Z,3.36
2018-11-25T05:27:33.076Z,3.37
2018-11-25T05:29:07.314Z,3.36
2018-11-25T05:30:41.660Z,3.35
2018-11-25T05:32:15.662Z,3.33
2018-11-25T05:33:51.526Z,3.35
2018-11-25T05:35:26.787Z,3.37
2018-11-25T05:37:01.114Z,3.35
2018-11-25T05:38:37.203Z,3.39
2018-11-25T05:40:11.643Z,3.39
2018-11-25T05:41:46.436Z,3.40
2018-11-25T05:43:20.657Z,3.39
2018-11-25T05:44:54.854Z,3.40
2018-11-25T05:46:29.054Z,3.41
2018-11-25T05:48:02.803Z,3.42
2018-11-25T05:49:37.155Z,3.43
2018-11-25T05:51:11.091Z,3.43
2018-11-25T05:52:44.936Z,3.43
2018-11-25T05:54:19.180Z,3.44
2018-11-25T05:55:53.027Z,3.44
2018-11-25T05:57:33.955Z,3.46
2018-11-25T05:59:19.081Z,3.47
2018-11-25T06:00:54.619Z,3.45
2018-11-25T06:02:29.106Z,3.46
2018-11-25T06:04:03.035Z,3.44
2018-11-25T06:05:37.183Z,3.41
2018-11-25T06:07:12.772Z,3.40
2018-11-25T06:08:47.426Z,3.42
2018-11-25T06:10:21.828Z,3.44
2018-11-25T06:11:57.193Z,3.46
2018-11-25T06:13:31.382Z,3.45
2018-11-25T06:15:08.113Z,3.47
2018-11-25T06:16:42.090Z,3.47
2018-11-25T06:18:16.574Z,3.48
2018-11-25T06:19:51.686Z,3.48
2018-11-25T06:21:27.294Z,3.44
2018-11-25T06:23:01.187Z,3.46
2018-11-25T06:24:35.681Z,3.47
2018-11-25T06:26:09.871Z,3.50
2018-11-25T06:27:44.286Z,3.52
2018-11-25T06:29:18.188Z,3.51
2018-11-25T06:30:53.013Z,3.50
2018-11-25T06:32:26.781Z,3.48
2018-11-25T06:34:00.974Z,3.47
2018-11-25T06:35:34.672Z,3.45
2018-11-25T06:37:08.851Z,3.49
2018-11-25T06:38:42.422Z,3.45
2018-11-25T06:40:16.780Z,3.48
2018-11-25T06:41:51.084Z,3.53
2018-11-25T06:43:25.296Z,3.52
2018-11-25T06:44:59.650Z,3.53
2018-11-25T06:46:34.903Z,3.52
2018-11-25T06:48:08.795Z,3.54
2018-11-25T06:49:42.577Z,3.54
2018-11-25T06:51:16.641Z,3.52
2018-11-25T06:52:50.792Z,3.53
2018-11-25T06:54:24.571Z,3.54
2018-11-25T06:55:58.981Z,3.53
2018-11-25T06:57:32.803Z,3.50
2018-11-25T06:59:07.261Z,3.53
2018-11-25T07:00:41.049Z,3.51
2018-11-25T07:02:14.644Z,3.51
2018-11-25T07:03:49.842Z,3.53
2018-11-25T07:05:23.451Z,3.50
2018-11-25T07:06:57.062Z,3.52
2018-11-25T07:08:30.913Z,3.52
2018-11-25T07:10:05.092Z,3.52
2018-11-25T07:11:39.126Z,3.49
2018-11-25T07:13:12.957Z,3.52
2018-11-25T07:14:57.171Z,3.53
2018-11-25T07:16:30.880Z,3.55
2018-11-25T07:18:07.121Z,3.52
2018-11-25T07:19:42.199Z,3.52
2018-11-25T07:21:16.209Z,3.50
2018-11-25T07:22:50.414Z,3.50
2018-11-25T07:24:24.613Z,3.48
2018-11-25T07:26:01.625Z,3.48
2018-11-25T07:27:35.738Z,3.49
2018-11-25T07:29:11.210Z,3.49
2018-11-25T07:30:46.440Z,3.50
2018-11-25T07:32:21.158Z,3.50
2018-11-25T07:33:56.224Z,3.51
2018-11-25T07:35:30.663Z,3.51
2018-11-25T07:37:05.243Z,3.51
2018-11-25T07:38:39.678Z,3.51
2018-11-25T07:40:16.178Z,3.54
2018-11-25T07:41:51.290Z,3.53
2018-11-25T07:43:25.574Z,3.56
2018-11-25T07:44:59.845Z,3.55
2018-11-25T07:46:35.177Z,3.57
2018-11-25T07:48:09.844Z,3.56
2018-11-25T07:49:43.383Z,3.57
2018-11-25T07:51:18.896Z,3.58
2018-11-25T07:52:56.826Z,3.61
2018-11-25T07:54:30.742Z,3.60
2018-11-25T07:56:04.397Z,3.60
2018-11-25T07:57:38.610Z,3.60
2018-11-25T07:59:14.681Z,3.63
2018-11-25T08:00:49.053Z,3.63
2018-11-25T08:02:23.049Z,3.65
2018-11-25T08:03:58.266Z,3.65
2018-11-25T08:05:32.321Z,3.65
2018-11-25T08:07:06.638Z,3.64
2018-11-25T08:08:41.803Z,3.65
2018-11-25T08:10:16.282Z,3.64
2018-11-25T08:11:50.648Z,3.63
2018-11-25T08:13:25.172Z,3.65
2018-11-25T08:14:59.566Z,3.66
2018-11-25T08:16:33.815Z,3.64
2018-11-25T08:18:07.754Z,3.65
2018-11-25T08:19:42.180Z,3.67
2018-11-25T08:21:15.882Z,3.68
2018-11-25T08:22:51.104Z,3.69
2018-11-25T08:24:24.673Z,3.72
2018-11-25T08:25:58.377Z,3.74
2018-11-25T08:27:32.181Z,3.76
2018-11-25T08:29:06.566Z,3.79
2018-11-25T08:30:44.590Z,3.79
2018-11-25T08:32:18.309Z,3.83
2018-11-25T08:33:52.311Z,3.84
2018-11-25T08:35:25.988Z,3.84
2018-11-25T08:37:01.883Z,3.86
2018-11-25T08:38:35.855Z,3.88
2018-11-25T08:40:12.868Z,3.89
2018-11-25T08:41:46.958Z,3.91
2018-11-25T08:43:21.105Z,3.94
2018-11-25T08:44:55.018Z,3.96
2018-11-25T08:46:28.904Z,3.95
2018-11-25T08:48:03.873Z,3.93
2018-11-25T08:49:37.438Z,3.97
2018-11-25T08:51:11.199Z,4.00
2018-11-25T08:52:47.254Z,4.00
2018-11-25T08:54:20.938Z,4.02
2018-11-25T08:55:54.554Z,4.04
2018-11-25T08:57:29.195Z,4.05
2018-11-25T08:59:03.931Z,4.06
2018-11-25T09:00:37.988Z,4.05
2018-11-25T09:02:11.637Z,4.09
2018-11-25T09:03:46.641Z,4.09
2018-11-25T09:05:20.314Z,4.05
2018-11-25T09:06:54.648Z,4.07
2018-11-25T09:08:28.696Z,4.08
2018-11-25T09:10:02.592Z,4.09
2018-11-25T09:11:36.198Z,4.12
2018-11-25T09:13:10.155Z,4.12
2018-11-25T09:14:43.771Z,4.14
2018-11-25T09:16:17.982Z,4.13
2018-11-25T09:17:51.607Z,4.11
2018-11-25T09:19:25.208Z,4.12
2018-11-25T09:20:58.893Z,4.17
2018-11-25T09:22:33.934Z,4.13
2018-11-25T09:24:07.925Z,4.14
2018-11-25T09:25:44.025Z,4.14
2018-11-25T09:27:17.688Z,4.13
2018-11-25T09:28:52.300Z,4.15
2018-11-25T09:30:26.662Z,4.16
2018-11-25T09:32:00.256Z,4.16
2018-11-25T09:33:34.104Z,4.17
2018-11-25T09:35:09.015Z,4.18
2018-11-25T09:36:43.531Z,4.23
2018-11-25T09:38:18.833Z,4.21
2018-11-25T09:39:53.535Z,4.24
2018-11-25T09:41:32.444Z,4.21
2018-11-25T09:43:07.607Z,4.23
2018-11-25T09:44:42.500Z,4.27
2018-11-25T09:46:18.406Z,4.28
2018-11-25T09:47:52.363Z,4.28
2018-11-25T09:49:25.963Z,4.26
2018-11-25T09:51:00.256Z,4.32
2018-11-25T09:52:33.930Z,4.31
2018-11-25T09:54:08.960Z,4.32
2018-11-25T09:55:43.550Z,4.41
2018-11-25T09:57:22.609Z,4.44
2018-11-25T09:59:07.821Z,4.47
2018-11-25T10:00:46.215Z,4.45
2018-11-25T10:02:23.598Z,4.49
2018-11-25T10:04:03.517Z,4.52
2018-11-25T10:05:39.211Z,4.55
2018-11-25T10:07:20.884Z,4.56
2018-11-25T10:08:59.033Z,4.63
2018-11-25T10:10:39.164Z,4.67
2018-11-25T10:12:14.174Z,4.72
2018-11-25T10:15:34.330Z,4.74
2018-11-25T10:17:08.803Z,4.78
2018-11-25T10:18:46.350Z,4.78
2018-11-25T10:20:21.728Z,4.79
2018-11-25T10:21:56.495Z,4.85
2018-11-25T10:23:30.386Z,4.84
2018-11-25T10:25:08.073Z,4.89
2018-11-25T10:26:41.862Z,4.85
2018-11-25T10:28:17.145Z,4.85
2018-11-25T10:29:51.160Z,4.86
2018-11-25T10:31:28.658Z,4.89
2018-11-25T10:33:03.385Z,4.90
2018-11-25T10:34:38.544Z,4.89
2018-11-25T10:36:13.417Z,4.91
2018-11-25T10:37:48.751Z,4.98
2018-11-25T10:39:23.743Z,4.97
2018-11-25T10:40:57.416Z,4.96
2018-11-25T10:42:31.057Z,4.98
2018-11-25T10:44:08.672Z,4.96
2018-11-25T10:45:46.424Z,5.03
2018-11-25T10:47:23.653Z,5.01
2018-11-25T10:48:57.518Z,5.01
2018-11-25T10:50:31.667Z,5.08
2018-11-25T10:52:08.898Z,5.11
2018-11-25T10:53:43.347Z,5.16
2018-11-25T10:55:23.642Z,5.17
2018-11-25T10:56:58.064Z,5.15
2018-11-25T10:58:34.986Z,5.21
2018-11-25T11:00:23.304Z,5.17
2018-11-25T11:02:17.830Z,5.17
2018-11-25T11:03:57.964Z,5.13
2018-11-25T11:05:40.253Z,5.17
2018-11-25T11:07:25.568Z,5.28
2018-11-25T11:08:59.975Z,5.26
2018-11-25T11:10:35.358Z,5.23
2018-11-25T11:12:09.411Z,5.24
2018-11-25T11:13:43.688Z,5.22
2018-11-25T11:15:24.816Z,5.29
2018-11-25T11:17:01.842Z,5.27
2018-11-25T11:18:36.468Z,5.29
2018-11-25T11:20:11.306Z,5.27
2018-11-25T11:21:46.373Z,5.25
2018-11-25T11:23:22.822Z,5.26
2018-11-25T11:25:00.188Z,5.29
2018-11-25T11:26:36.161Z,5.27
2018-11-25T11:28:10.854Z,5.28
2018-11-25T11:29:45.453Z,5.29
2018-11-25T11:31:22.549Z,5.25
2018-11-25T11:33:04.443Z,5.29
2018-11-25T11:34:39.687Z,5.31
2018-11-25T11:36:13.684Z,5.29
2018-11-25T11:37:47.356Z,5.24
2018-11-25T11:39:22.295Z,5.28
2018-11-25T11:41:01.374Z,5.17
2018-11-25T11:42:37.209Z,5.19
2018-11-25T11:44:13.570Z,5.12
2018-11-25T11:45:47.633Z,5.17
2018-11-25T11:47:23.684Z,5.20
2018-11-25T11:49:05.512Z,5.18
2018-11-25T11:50:43.789Z,5.18
2018-11-25T11:52:20.728Z,5.21
2018-11-25T11:54:01.689Z,5.19
2018-11-25T11:55:54.002Z,5.18
2018-11-25T11:57:34.772Z,5.12
2018-11-25T11:59:11.544Z,5.23
2018-11-25T12:00:45.234Z,5.27
2018-11-25T12:02:21.169Z,5.27
2018-11-25T12:03:56.872Z,5.30
2018-11-25T12:05:34.650Z,5.37
2018-11-25T12:07:10.668Z,5.34
2018-11-25T12:08:45.073Z,5.32
2018-11-25T12:10:21.203Z,5.35
2018-11-25T12:11:55.548Z,5.35
2018-11-25T12:13:31.676Z,5.33
2018-11-25T12:15:10.976Z,5.31
2018-11-25T12:16:48.021Z,5.36
2018-11-25T12:18:21.845Z,5.45
2018-11-25T12:19:56.769Z,5.45
2018-11-25T12:21:32.549Z,5.50
2018-11-25T12:23:07.180Z,5.53
2018-11-25T12:24:49.667Z,5.43
2018-11-25T12:26:45.257Z,5.39
2018-11-25T12:28:20.602Z,5.44
2018-11-25T12:29:56.487Z,5.50
2018-11-25T12:31:37.966Z,5.47
2018-11-25T12:33:12.565Z,5.57
2018-11-25T12:34:51.334Z,5.61
2018-11-25T12:36:29.350Z,5.58
2018-11-25T12:38:06.392Z,5.59
2018-11-25T12:39:42.286Z,5.52
2018-11-25T12:41:32.466Z,5.48
2018-11-25T12:43:12.934Z,5.51
2018-11-25T12:44:50.781Z,5.46
2018-11-25T12:46:34.415Z,5.49
2018-11-25T12:48:13.684Z,5.46
2018-11-25T12:50:00.515Z,5.42
2018-11-25T12:51:37.823Z,5.37
2018-11-25T12:53:12.213Z,5.39
2018-11-25T12:54:48.865Z,5.37
2018-11-25T12:56:27.621Z,5.35
2018-11-25T12:58:03.178Z,5.38
2018-11-25T12:59:44.464Z,5.42
2018-11-25T13:01:24.154Z,5.44
2018-11-25T13:02:59.688Z,5.45
2018-11-25T13:04:37.618Z,5.52
2018-11-25T13:07:59.137Z,5.51
2018-11-25T13:09:38.790Z,5.43
2018-11-25T13:11:17.840Z,5.52
2018-11-25T13:12:53.869Z,5.54
2018-11-25T13:14:31.110Z,5.48
2018-11-25T13:16:04.895Z,5.54
2018-11-25T13:17:48.571Z,5.47
2018-11-25T13:19:24.834Z,5.50
2018-11-25T13:21:00.507Z,5.34
2018-11-25T13:22:39.544Z,5.26
2018-11-25T13:24:16.340Z,5.33
2018-11-25T13:25:50.829Z,5.35
2018-11-25T13:27:25.078Z,5.38
2018-11-25T13:28:59.880Z,5.38
2018-11-25T13:30:59.945Z,5.38
2018-11-25T13:32:40.162Z,5.37
2018-11-25T13:34:15.970Z,5.34
2018-11-25T13:35:50.143Z,5.30
2018-11-25T13:37:34.822Z,5.34
2018-11-25T13:39:11.385Z,5.40
2018-11-25T13:40:53.776Z,5.36
2018-11-25T13:42:36.801Z,5.36
2018-11-25T13:44:14.635Z,5.31
2018-11-25T13:45:58.809Z,5.31
2018-11-25T13:47:38.675Z,5.35
2018-11-25T13:49:16.910Z,5.30
2018-11-25T13:50:51.946Z,5.34
2018-11-25T13:52:29.522Z,5.32
2018-11-25T13:54:17.061Z,5.27
2018-11-25T13:55:52.364Z,5.27
2018-11-25T13:57:27.826Z,5.26
2018-11-25T13:59:03.219Z,5.23
2018-11-25T14:00:39.843Z,5.26
2018-11-25T14:02:16.414Z,5.20
2018-11-25T14:03:51.731Z,5.13
2018-11-25T14:05:28.083Z,5.12
2018-11-25T14:07:04.339Z,5.12
2018-11-25T14:08:38.766Z,5.10
2018-11-25T14:10:22.305Z,5.08
2018-11-25T14:13:50.715Z,4.97
2018-11-25T14:15:26.990Z,4.96
2018-11-25T14:17:03.781Z,4.98
2018-11-25T14:18:38.180Z,4.99
2018-11-25T14:20:13.235Z,4.91
2018-11-25T14:21:50.452Z,4.93
2018-11-25T14:23:25.576Z,4.93
2018-11-25T14:25:01.080Z,4.91
2018-11-25T14:27:00.650Z,4.86
2018-11-25T14:28:35.464Z,4.85
2018-11-25T14:30:16.574Z,4.86
2018-11-25T14:31:55.234Z,4.81
2018-11-25T14:33:31.515Z,4.80
2018-11-25T14:35:07.160Z,4.78
2018-11-25T14:36:41.049Z,4.75
2018-11-25T14:38:15.276Z,4.70
2018-11-25T14:39:53.053Z,4.68
2018-11-25T14:41:29.662Z,4.63
2018-11-25T14:43:04.459Z,4.59
2018-11-25T14:44:40.286Z,4.57
2018-11-25T14:46:18.535Z,4.55
2018-11-25T14:47:55.574Z,4.52
2018-11-25T14:49:49.585Z,4.50
2018-11-25T14:51:29.256Z,4.48
2018-11-25T14:53:06.878Z,4.46
2018-11-25T14:54:42.318Z,4.45
2018-11-25T14:56:18.113Z,4.44
2018-11-25T14:57:52.162Z,4.44
2018-11-25T14:59:27.374Z,4.44
2018-11-25T15:01:02.055Z,4.44
2018-11-25T15:02:38.563Z,4.42
2018-11-25T15:04:15.165Z,4.40
2018-11-25T15:05:49.352Z,4.41
2018-11-25T15:07:24.689Z,4.38
2018-11-25T15:08:59.236Z,4.39
2018-11-25T15:10:33.481Z,4.37
2018-11-25T15:12:09.556Z,4.36
2018-11-25T15:13:47.895Z,4.36
2018-11-25T15:15:21.715Z,4.35
2018-11-25T15:16:56.769Z,4.34
2018-11-25T15:18:31.008Z,4.34
2018-11-25T15:20:06.216Z,4.33
2018-11-25T15:21:40.676Z,4.32
2018-11-25T15:23:15.005Z,4.30
2018-11-25T15:24:51.101Z,4.28
2018-11-25T15:26:26.199Z,4.29
2018-11-25T15:28:02.318Z,4.28
2018-11-25T15:29:37.795Z,4.27
2018-11-25T15:31:14.293Z,4.25
2018-11-25T15:32:49.249Z,4.24
2018-11-25T15:34:23.699Z,4.24
2018-11-25T15:35:58.805Z,4.23
2018-11-25T15:37:34.462Z,4.23
2018-11-25T15:39:10.675Z,4.22
2018-11-25T15:40:46.118Z,4.21
2018-11-25T15:42:21.816Z,4.22
2018-11-25T15:43:59.932Z,4.19
2018-11-25T15:45:36.858Z,4.18
2018-11-25T15:47:12.235Z,4.16
2018-11-25T15:48:46.470Z,4.13
2018-11-25T15:50:25.428Z,4.07
2018-11-25T15:52:01.411Z,4.07
2018-11-25T15:53:36.789Z,4.05
2018-11-25T15:55:14.839Z,4.01
2018-11-25T15:56:49.659Z,3.99
2018-11-25T15:58:24.236Z,3.97
2018-11-25T15:59:58.475Z,3.94
2018-11-25T16:01:34.047Z,3.91
2018-11-25T16:03:10.270Z,3.89
2018-11-25T16:04:45.894Z,3.85
2018-11-25T16:06:31.302Z,3.83
2018-11-25T16:08:07.166Z,3.79
2018-11-25T16:09:41.692Z,3.76
2018-11-25T16:11:16.450Z,3.72
2018-11-25T16:12:50.506Z,3.68
2018-11-25T16:14:25.357Z,3.65
2018-11-25T16:15:59.864Z,3.64
2018-11-25T16:17:34.883Z,3.61
2018-11-25T16:19:12.378Z,3.59
2018-11-25T16:20:49.652Z,3.58
2018-11-25T16:22:23.807Z,3.56
2018-11-25T16:23:59.030Z,3.56
2018-11-25T16:25:38.876Z,3.55
2018-11-25T16:27:13.657Z,3.54
2018-11-25T16:28:49.110Z,3.52
2018-11-25T16:30:26.169Z,3.50
2018-11-25T16:32:01.396Z,3.51
2018-11-25T16:33:37.309Z,3.51
2018-11-25T16:35:14.708Z,3.51
2018-11-25T16:36:49.306Z,3.50
2018-11-25T16:38:24.924Z,3.49
2018-11-25T16:39:58.850Z,3.50
2018-11-25T16:41:35.690Z,3.51
2018-11-25T16:43:09.668Z,3.51
2018-11-25T16:44:48.320Z,3.54
2018-11-25T16:46:23.404Z,3.55
2018-11-25T16:48:04.423Z,3.55
2018-11-25T16:49:49.796Z,3.57
2018-11-25T16:51:26.985Z,3.60
2018-11-25T16:53:07.719Z,3.62
2018-11-25T16:54:44.534Z,3.64
2018-11-25T16:56:24.705Z,3.64
2018-11-25T16:58:00.635Z,3.65
2018-11-25T16:59:43.569Z,3.67
2018-11-25T17:01:24.261Z,3.68
2018-11-25T17:03:00.434Z,3.68
2018-11-25T17:04:35.573Z,3.70
2018-11-25T17:06:10.847Z,3.71
2018-11-25T17:07:45.889Z,3.71
2018-11-25T17:09:21.337Z,3.70
2018-11-25T17:10:57.111Z,3.71
2018-11-25T17:12:31.237Z,3.71
2018-11-25T17:14:05.028Z,3.71
2018-11-25T17:15:42.145Z,3.70
2018-11-25T17:17:16.691Z,3.71
2018-11-25T17:18:51.846Z,3.69
2018-11-25T17:20:26.924Z,3.70
2018-11-25T17:22:02.099Z,3.70
2018-11-25T17:23:39.581Z,3.71
2018-11-25T17:25:19.063Z,3.70
2018-11-25T17:26:54.481Z,3.70
2018-11-25T17:28:45.750Z,3.69
2018-11-25T17:30:28.998Z,3.68
2018-11-25T17:32:31.237Z,3.67
2018-11-25T17:34:16.073Z,3.66
2018-11-25T17:35:51.985Z,3.66
2018-11-25T17:37:30.366Z,3.65
2018-11-25T17:39:12.156Z,3.64
2018-11-25T17:40:50.334Z,3.63
2018-11-25T17:42:28.615Z,3.61
2018-11-25T17:44:04.517Z,3.62
2018-11-25T17:45:43.099Z,3.60
2018-11-25T17:47:26.100Z,3.59
2018-11-25T17:49:17.951Z,3.57
2018-11-25T17:50:59.450Z,3.54
2018-11-25T17:52:37.516Z,3.55
2018-11-25T17:54:11.734Z,3.53
2018-11-25T17:55:48.819Z,3.52
2018-11-25T17:57:23.491Z,3.50
2018-11-25T17:58:59.883Z,3.49
2018-11-25T18:00:44.787Z,3.47
2018-11-25T18:02:25.447Z,3.44
2018-11-25T18:04:03.826Z,3.43
2018-11-25T18:05:43.297Z,3.44
2018-11-25T18:09:01.360Z,3.45
2018-11-25T18:10:56.465Z,3.43
2018-11-25T18:12:35.929Z,3.43
2018-11-25T18:14:11.790Z,3.42
2018-11-25T18:15:46.642Z,3.41
2018-11-25T18:17:35.186Z,3.40
2018-11-25T18:19:28.147Z,3.41
2018-11-25T18:21:17.206Z,3.40
2018-11-25T18:22:53.264Z,3.39
2018-11-25T18:24:31.297Z,3.38
2018-11-25T18:27:45.872Z,3.36
2018-11-25T18:29:20.640Z,3.34
2018-11-25T18:30:55.754Z,3.35
2018-11-25T18:32:32.790Z,3.35
2018-11-25T18:34:08.292Z,3.35
2018-11-25T18:35:43.114Z,3.33
2018-11-25T18:37:17.934Z,3.33
2018-11-25T18:38:52.584Z,3.32
2018-11-25T18:40:27.998Z,3.32
2018-11-25T18:42:01.809Z,3.34
2018-11-25T18:43:37.268Z,3.34
2018-11-25T18:45:16.024Z,3.33
2018-11-25T18:46:50.062Z,3.32
2018-11-25T18:48:27.415Z,3.32
2018-11-25T18:50:06.519Z,3.33
2018-11-25T18:51:41.798Z,3.35
2018-11-25T18:53:18.293Z,3.36
2018-11-25T18:54:52.279Z,3.37
2018-11-25T18:56:29.563Z,3.40
2018-11-25T18:58:03.511Z,3.41
2018-11-25T18:59:40.583Z,3.42
2018-11-25T19:01:39.280Z,3.44
2018-11-25T19:03:16.430Z,3.45
2018-11-25T19:04:54.987Z,3.46
2018-11-25T19:06:29.724Z,3.47
2018-11-25T19:08:06.825Z,3.50
2018-11-25T19:09:43.193Z,3.51
2018-11-25T19:11:18.779Z,3.53
2018-11-25T19:12:54.159Z,3.56
2018-11-25T19:14:28.576Z,3.57
2018-11-25T19:16:20.118Z,3.58
2018-11-25T19:18:13.781Z,3.60
2018-11-25T19:19:54.619Z,3.64
2018-11-25T19:21:34.637Z,3.64
2018-11-25T19:23:09.542Z,3.65
2018-11-25T19:24:53.721Z,3.67
2018-11-25T19:26:28.433Z,3.69
2018-11-25T19:28:09.929Z,3.70
2018-11-25T19:29:46.978Z,3.71
2018-11-25T19:31:25.789Z,3.73
2018-11-25T19:33:02.035Z,3.75
2018-11-25T19:34:38.797Z,3.75
2018-11-25T19:36:16.913Z,3.76
2018-11-25T19:37:54.516Z,3.76
2018-11-25T19:39:29.801Z,3.79
2018-11-25T19:41:07.260Z,3.80
2018-11-25T19:42:52.444Z,3.80
2018-11-25T19:44:31.884Z,3.81
2018-11-25T19:46:06.106Z,3.81
2018-11-25T19:47:43.484Z,3.82
2018-11-25T19:49:18.210Z,3.84
2018-11-25T19:50:54.633Z,3.84
2018-11-25T19:52:30.289Z,3.87
2018-11-25T19:54:04.262Z,3.87
2018-11-25T19:55:46.813Z,3.88
2018-11-25T19:57:25.776Z,3.88
2018-11-25T20:01:06.282Z,3.92
2018-11-25T20:02:50.082Z,3.92
2018-11-25T20:04:25.874Z,3.92
2018-11-25T20:06:02.991Z,3.93
2018-11-25T20:07:37.901Z,3.93
2018-11-25T20:09:12.785Z,3.93
2018-11-25T20:14:15.795Z,3.96
2018-11-25T20:18:03.883Z,3.96
2018-11-25T20:19:39.400Z,3.97
2018-11-25T20:21:18.854Z,3.98
2018-11-25T20:22:53.441Z,3.98
2018-11-25T20:24:28.963Z,3.98
2018-11-25T20:26:03.180Z,3.96
2018-11-25T20:28:07.872Z,3.97
2018-11-25T20:29:41.727Z,3.96
2018-11-25T20:31:16.885Z,3.95
2018-11-25T20:32:55.800Z,3.94
2018-11-25T20:34:29.622Z,3.94
2018-11-25T20:36:03.883Z,3.93
2018-11-25T20:38:41.196Z,3.94
2018-11-25T20:40:15.018Z,3.94
2018-11-25T20:41:50.022Z,3.91
2018-11-25T20:43:24.459Z,3.92
2018-11-25T20:44:59.657Z,3.90
2018-11-25T20:46:39.103Z,3.89
2018-11-25T20:48:15.442Z,3.90
2018-11-25T20:49:51.325Z,3.88
2018-11-25T20:51:30.334Z,3.90
2018-11-25T20:53:09.071Z,3.89
2018-11-25T20:54:43.748Z,3.90
2018-11-25T20:56:17.953Z,3.90
2018-11-25T20:57:53.088Z,3.91
2018-11-25T20:59:27.067Z,3.90
2018-11-25T21:01:01.617Z,3.91
2018-11-25T21:02:36.120Z,3.91
2018-11-25T21:04:09.854Z,3.91
2018-11-25T21:05:50.419Z,3.91
2018-11-25T21:07:24.442Z,3.92
2018-11-25T21:09:00.526Z,3.92
2018-11-25T21:10:34.368Z,3.91
2018-11-25T21:12:08.749Z,3.91
2018-11-25T21:13:44.785Z,3.92
2018-11-25T21:15:20.511Z,3.92
2018-11-25T21:16:56.517Z,3.92
2018-11-25T21:18:30.225Z,3.92
2018-11-25T21:20:05.436Z,3.93
2018-11-25T21:21:40.295Z,3.94
2018-11-25T21:23:14.432Z,3.94
2018-11-25T21:24:48.764Z,3.94
2018-11-25T21:26:24.153Z,3.94
2018-11-25T21:27:58.435Z,3.94
2018-11-25T21:29:33.484Z,3.93
2018-11-25T21:31:08.366Z,3.93
2018-11-25T21:32:42.260Z,3.94
2018-11-25T21:34:16.680Z,3.93
2018-11-25T21:35:52.859Z,3.92
2018-11-25T21:37:29.484Z,3.92